createdAt,value
2023-04-18T00:04:12.116Z,4.72
2023-04-18T00:06:39.321Z,5.07
2023-04-18T00:09:06.259Z,5.10
2023-04-18T00:12:09.930Z,5.03
2023-04-18T00:15:32.866Z,5.22
2023-04-18T00:18:37.162Z,5.13
2023-04-18T00:21:04.541Z,5.45
2023-04-18T00:23:31.276Z,5.78
2023-04-18T00:26:54.569Z,5.55
2023-04-18T00:34:23.068Z,5.85
2023-04-18T00:44:31.558Z,5.65
2023-04-18T00:50:40.621Z,4.85
2023-04-18T00:57:07.390Z,4.97
2023-04-18T01:00:12.314Z,5.00
2023-04-18T01:02:40.241Z,4.95
2023-04-18T01:05:32.458Z,5.50
2023-04-18T01:08:55.451Z,5.03
2023-04-18T01:11:22.083Z,5.22
2023-04-18T01:14:06.139Z,5.88
2023-04-18T01:21:16.155Z,4.80
2023-04-18T01:28:10.651Z,5.03
2023-04-18T01:30:37.201Z,5.70
2023-04-18T01:36:59.176Z,6.70
2023-04-18T01:43:27.430Z,5.75
2023-04-18T01:49:46.730Z,5.45
2023-04-18T01:56:00.596Z,5.68
2023-04-18T02:02:14.478Z,5.20
2023-04-18T02:08:28.462Z,5.85
2023-04-18T02:14:42.771Z,4.70
2023-04-18T02:20:49.826Z,5.70
2023-04-18T02:23:18.385Z,5.75
2023-04-18T02:25:44.980Z,5.93
2023-04-18T02:29:07.830Z,5.38
2023-04-18T02:31:40.429Z,5.25
2023-04-18T02:35:03.534Z,5.40
2023-04-18T02:41:19.551Z,6.20
2023-04-18T02:44:42.703Z,5.43
2023-04-18T02:47:09.630Z,6.55
2023-04-18T02:49:36.150Z,5.68
2023-04-18T03:58:48.417Z,6.28
2023-04-18T04:02:11.228Z,5.50
2023-04-18T04:04:37.837Z,6.40
2023-04-18T04:07:04.684Z,6.68
2023-04-18T04:13:12.378Z,6.40
2023-04-18T04:19:30.070Z,5.50
2023-04-18T04:22:56.000Z,5.95
2023-04-18T04:25:25.518Z,5.50
2023-04-18T04:28:31.070Z,5.55
2023-04-18T04:30:57.957Z,5.68
2023-04-18T04:36:45.540Z,5.65
2023-04-18T04:39:12.839Z,6.65
2023-04-18T04:51:47.046Z,5.60
2023-04-18T04:58:41.937Z,5.15
2023-04-18T05:01:09.244Z,6.35
2023-04-18T05:03:36.706Z,5.72
2023-04-18T05:09:43.817Z,5.00
2023-04-18T05:12:10.352Z,6.43
2023-04-18T05:14:36.961Z,5.68
2023-04-18T05:17:05.820Z,5.53
2023-04-18T05:19:32.392Z,5.40
2023-04-18T05:21:59.012Z,5.70
2023-04-18T05:24:25.733Z,5.20
2023-04-18T05:30:32.782Z,5.45
2023-04-18T05:32:59.353Z,5.75
2023-04-18T05:39:17.090Z,5.20
2023-04-18T05:49:24.857Z,5.70
2023-04-18T05:55:42.243Z,4.63
2023-04-18T05:58:08.854Z,4.15
2023-04-18T06:00:35.825Z,5.55
2023-04-18T06:03:02.742Z,4.97
2023-04-18T06:06:07.089Z,5.40
2023-04-18T06:08:33.666Z,5.00
2023-04-18T06:11:00.353Z,4.50
2023-04-18T06:13:45.627Z,5.05
2023-04-18T06:16:12.526Z,4.68
2023-04-18T06:18:39.309Z,4.10
2023-04-18T06:24:56.632Z,4.45
2023-04-18T06:27:42.034Z,5.45
2023-04-18T06:30:09.083Z,4.75
2023-04-18T06:36:27.528Z,4.88
2023-04-18T06:38:54.076Z,4.43
2023-04-18T06:41:20.599Z,4.85
2023-04-18T06:44:02.029Z,5.40
2023-04-18T06:46:33.752Z,4.68
2023-04-18T06:49:00.485Z,4.50
2023-04-18T06:51:27.487Z,4.40
2023-04-18T06:53:54.260Z,4.25
2023-04-18T06:56:21.600Z,4.60
2023-04-18T07:02:42.280Z,4.30
2023-04-18T07:09:01.572Z,4.30
2023-04-18T07:15:09.515Z,4.35
2023-04-18T07:17:36.086Z,4.30
2023-04-18T07:20:02.713Z,4.28
2023-04-18T07:22:29.291Z,4.28
2023-04-18T07:25:52.378Z,4.68
2023-04-18T07:31:59.630Z,4.05
2023-04-18T07:34:29.636Z,4.35
2023-04-18T07:36:59.731Z,4.57
2023-04-18T07:39:26.235Z,3.55
2023-04-18T07:41:52.894Z,4.10
2023-04-18T07:48:01.887Z,4.50
2023-04-18T07:54:19.312Z,4.22
2023-04-18T07:56:45.891Z,4.70
2023-04-18T08:03:35.017Z,4.30
2023-04-18T08:06:02.429Z,4.57
2023-04-18T08:08:29.136Z,4.45
2023-04-18T08:11:52.165Z,4.10
2023-04-18T08:14:18.698Z,4.97
2023-04-18T08:16:45.493Z,4.70
2023-04-18T08:19:12.385Z,5.22
2023-04-18T08:21:39.363Z,4.57
2023-04-18T08:24:06.277Z,4.38
2023-04-18T08:26:32.844Z,5.05
2023-04-18T08:28:59.431Z,4.95
2023-04-18T08:31:26.011Z,5.15
2023-04-18T08:33:52.696Z,4.97
2023-04-18T08:36:19.278Z,4.68
2023-04-18T08:38:46.688Z,5.88
2023-04-18T08:41:14.301Z,5.35
2023-04-18T08:43:40.907Z,5.05
2023-04-18T08:46:07.989Z,5.25
2023-04-18T08:52:19.278Z,5.70
2023-04-18T08:54:47.234Z,5.30
2023-04-18T09:01:58.007Z,5.25
2023-04-18T09:08:59.197Z,5.15
2023-04-18T09:11:29.115Z,6.47
2023-04-18T09:18:10.573Z,5.60
2023-04-18T09:24:28.713Z,5.40
2023-04-18T09:26:57.163Z,5.45
2023-04-18T09:30:02.491Z,5.43
2023-04-18T09:36:22.198Z,5.43
2023-04-18T09:38:54.623Z,5.55
2023-04-18T09:41:23.420Z,5.28
2023-04-18T09:44:27.795Z,5.18
2023-04-18T09:50:46.394Z,5.07
2023-04-18T09:53:20.051Z,6.03
2023-04-18T10:00:44.363Z,5.53
2023-04-18T10:03:44.410Z,4.82
2023-04-18T10:06:14.830Z,5.45
2023-04-18T10:08:42.288Z,5.75
2023-04-18T10:11:09.002Z,5.80
2023-04-18T10:13:39.343Z,6.68
2023-04-18T10:16:06.928Z,6.40
2023-04-18T10:18:33.663Z,6.28
2023-04-18T10:21:04.302Z,6.05
2023-04-18T10:23:36.257Z,5.95
2023-04-18T10:29:51.540Z,5.57
2023-04-18T10:32:20.040Z,6.00
2023-04-18T10:34:48.102Z,6.13
2023-04-18T10:37:14.989Z,6.30
2023-04-18T10:40:06.625Z,6.57
2023-04-18T10:46:27.912Z,6.00
2023-04-18T10:49:27.860Z,5.88
2023-04-18T10:52:00.341Z,6.20
2023-04-18T10:58:17.374Z,5.85
2023-04-18T11:03:36.301Z,6.93
2023-04-18T11:06:03.605Z,5.88
2023-04-18T11:08:30.710Z,6.40
2023-04-18T11:11:02.900Z,6.70
2023-04-18T11:13:29.757Z,6.65
2023-04-18T11:15:56.396Z,6.03
2023-04-18T11:18:23.015Z,5.82
2023-04-18T11:20:51.289Z,6.15
2023-04-18T11:23:21.478Z,6.03
2023-04-18T11:25:51.559Z,6.32
2023-04-18T11:28:22.089Z,5.70
2023-04-18T11:30:48.782Z,6.97
2023-04-18T11:33:15.754Z,5.95
2023-04-18T11:35:45.384Z,6.72
2023-04-18T11:38:14.582Z,6.65
2023-04-18T11:40:48.721Z,6.03
2023-04-18T11:43:21.076Z,6.70
2023-04-18T11:45:59.807Z,7.10
2023-04-18T11:48:37.202Z,6.93
2023-04-18T11:51:04.761Z,6.70
2023-04-18T11:53:35.971Z,7.05
2023-04-18T11:56:03.870Z,7.50
2023-04-18T11:58:34.677Z,7.25
2023-04-18T12:01:16.733Z,6.57
2023-04-18T12:03:45.423Z,6.47
2023-04-18T12:06:12.396Z,6.75
2023-04-18T12:08:38.977Z,6.65
2023-04-18T12:11:05.864Z,6.78
2023-04-18T12:13:32.940Z,6.80
2023-04-18T12:16:02.077Z,6.50
2023-04-18T12:18:30.043Z,5.90
2023-04-18T12:20:58.661Z,6.82
2023-04-18T12:23:36.093Z,6.85
2023-04-18T12:26:07.248Z,6.28
2023-04-18T12:28:35.012Z,6.85
2023-04-18T12:31:02.034Z,6.00
2023-04-18T12:33:28.697Z,6.93
2023-04-18T12:39:36.238Z,6.38
2023-04-18T12:42:21.536Z,5.90
2023-04-18T12:44:48.136Z,5.85
2023-04-18T12:47:14.709Z,6.35
2023-04-18T12:49:41.450Z,6.55
2023-04-18T12:52:08.153Z,6.07
2023-04-18T12:58:26.314Z,5.53
2023-04-18T13:04:34.733Z,5.55
2023-04-18T13:10:42.181Z,5.78
2023-04-18T13:13:08.756Z,4.97
2023-04-18T13:15:35.335Z,5.82
2023-04-18T13:18:05.088Z,5.72
2023-04-18T13:20:32.888Z,6.32
2023-04-18T13:22:59.436Z,5.50
2023-04-18T13:25:26.633Z,5.65
2023-04-18T13:27:53.425Z,4.95
2023-04-18T13:34:10.875Z,5.65
2023-04-18T13:40:28.327Z,4.78
2023-04-18T13:42:54.968Z,5.00
2023-04-18T13:45:22.111Z,5.25
2023-04-18T13:47:48.774Z,5.13
2023-04-18T13:50:15.416Z,5.68
2023-04-18T13:52:42.123Z,5.10
2023-04-18T13:55:10.507Z,4.75
2023-04-18T13:57:37.468Z,5.22
2023-04-18T14:00:09.120Z,5.22
2023-04-18T14:03:08.054Z,5.32
2023-04-18T14:05:35.905Z,4.93
2023-04-18T14:11:53.016Z,4.88
2023-04-18T14:14:19.682Z,5.20
2023-04-18T14:16:46.232Z,4.97
2023-04-18T14:19:13.027Z,5.05
2023-04-18T14:21:39.819Z,5.05
2023-04-18T14:24:06.954Z,5.65
2023-04-18T14:26:35.698Z,5.35
2023-04-18T14:29:04.095Z,4.72
2023-04-18T14:31:33.444Z,5.18
2023-04-18T14:34:00.027Z,5.22
2023-04-18T14:36:27.231Z,5.80
2023-04-18T14:38:54.751Z,4.93
2023-04-18T14:41:23.886Z,4.53
2023-04-18T14:43:50.486Z,5.20
2023-04-18T14:46:17.606Z,4.90
2023-04-18T14:48:46.335Z,4.85
2023-04-18T14:51:13.055Z,4.90
2023-04-18T14:53:39.651Z,5.10
2023-04-18T14:57:02.273Z,4.47
2023-04-18T15:00:07.621Z,5.07
2023-04-18T15:02:35.725Z,5.05
2023-04-18T15:09:02.127Z,5.03
2023-04-18T15:11:28.753Z,4.70
2023-04-18T15:14:32.996Z,4.22
2023-04-18T15:16:59.634Z,5.32
2023-04-18T15:19:28.049Z,4.38
2023-04-18T15:25:35.845Z,4.40
2023-04-18T15:31:43.117Z,3.70
2023-04-18T15:37:51.433Z,4.20
2023-04-18T15:40:18.523Z,4.00
2023-04-18T15:42:45.771Z,4.15
2023-04-18T15:45:36.715Z,3.80
2023-04-18T15:48:03.383Z,3.97
2023-04-18T15:50:31.521Z,3.78
2023-04-18T15:56:50.874Z,3.75
2023-04-18T16:02:58.484Z,3.90
2023-04-18T16:09:38.772Z,3.42
2023-04-18T16:15:56.036Z,3.38
2023-04-18T16:19:24.043Z,3.50
2023-04-18T16:21:50.633Z,3.55
2023-04-18T16:24:54.685Z,3.35
2023-04-18T16:27:58.702Z,3.92
2023-04-18T16:30:25.310Z,3.45
2023-04-18T16:32:52.144Z,4.03
2023-04-18T16:38:59.511Z,3.50
2023-04-18T16:45:07.548Z,3.13
2023-04-18T16:51:24.962Z,3.78
2023-04-18T16:53:51.533Z,3.53
2023-04-18T16:56:18.163Z,3.67
2023-04-18T17:02:35.333Z,3.85
2023-04-18T17:05:39.719Z,3.72
2023-04-18T17:08:06.910Z,4.00
2023-04-18T17:14:24.199Z,3.53
2023-04-18T17:20:31.261Z,3.80
2023-04-18T17:23:16.830Z,3.92
2023-04-18T17:25:43.864Z,3.40
2023-04-18T17:31:51.414Z,3.80
2023-04-18T17:34:18.282Z,3.28
2023-04-18T17:36:44.949Z,3.28
2023-04-18T17:39:11.747Z,3.80
2023-04-18T17:45:29.262Z,3.60
2023-04-18T17:51:36.132Z,3.72
2023-04-18T17:54:03.015Z,4.47
2023-04-18T17:56:31.482Z,4.43
2023-04-18T17:58:58.043Z,3.83
2023-04-18T18:01:26.165Z,3.50
2023-04-18T18:08:06.392Z,4.20
2023-04-18T18:10:33.522Z,4.88
2023-04-18T18:13:18.730Z,4.35
2023-04-18T18:15:45.574Z,4.07
2023-04-18T18:47:40.110Z,4.25
2023-04-18T18:51:03.093Z,4.47
2023-04-18T18:53:29.671Z,4.22
2023-04-18T18:55:56.233Z,4.68
2023-04-18T19:02:15.096Z,4.00
2023-04-18T20:09:16.705Z,4.15
2023-04-18T20:15:24.439Z,4.03
2023-04-18T20:18:47.657Z,3.92
2023-04-18T20:21:14.255Z,4.28
2023-04-18T20:24:37.183Z,4.00
2023-04-18T20:27:03.961Z,3.67
2023-04-18T20:30:27.129Z,3.83
2023-04-18T20:32:53.704Z,3.85
2023-04-18T20:36:16.805Z,3.65
2023-04-18T20:38:44.473Z,4.03
2023-04-18T20:41:51.429Z,3.97
2023-04-18T20:44:21.779Z,4.00
2023-04-18T20:46:48.395Z,3.80
2023-04-18T20:50:11.397Z,4.20
2023-04-18T20:52:38.028Z,3.65
2023-04-18T20:56:01.225Z,3.83
2023-04-18T20:58:27.786Z,4.28
2023-04-18T21:01:32.284Z,3.55
2023-04-18T21:04:03.223Z,3.92
2023-04-18T21:06:30.013Z,3.72
2023-04-18T21:08:56.647Z,3.72
2023-04-18T21:12:19.463Z,3.97
2023-04-18T21:14:46.264Z,3.53
2023-04-18T21:18:09.197Z,3.90
2023-04-18T21:20:36.852Z,4.18
2023-04-18T21:23:59.803Z,3.78
2023-04-18T21:26:26.420Z,3.80
2023-04-18T21:29:49.395Z,4.05
2023-04-18T21:32:15.980Z,4.03
2023-04-18T21:35:38.592Z,4.25
2023-04-18T21:38:05.246Z,3.92
2023-04-18T21:40:50.661Z,3.72
2023-04-18T21:43:17.202Z,3.95
2023-04-18T21:46:39.859Z,4.05
2023-04-18T21:49:06.920Z,3.70
2023-04-18T21:52:30.101Z,3.60
2023-04-18T21:55:03.358Z,3.80
2023-04-18T22:02:07.168Z,3.97
2023-04-18T22:05:07.635Z,4.55
2023-04-18T22:07:43.314Z,4.07
2023-04-18T22:10:21.350Z,4.18
2023-04-18T22:16:28.937Z,4.65
2023-04-18T22:22:36.351Z,4.00
2023-04-18T22:28:53.215Z,4.28
2023-04-18T22:32:16.160Z,4.82
2023-04-18T22:34:43.031Z,4.40
2023-04-18T22:37:10.066Z,4.80
2023-04-18T22:39:55.576Z,4.90
2023-04-18T22:42:22.106Z,4.85
2023-04-18T22:45:44.832Z,4.57
2023-04-18T22:52:41.859Z,5.60
2023-04-18T22:55:15.283Z,4.57
2023-04-18T22:58:39.745Z,5.43
2023-04-18T23:01:06.480Z,5.38
2023-04-18T23:03:34.392Z,5.85
2023-04-18T23:10:31.000Z,4.57
2023-04-18T23:12:57.836Z,4.55
2023-04-18T23:16:21.267Z,6.13
2023-04-18T23:18:47.851Z,5.60
2023-04-18T23:22:10.912Z,5.10
2023-04-18T23:28:28.426Z,5.80
2023-04-18T23:31:01.291Z,4.90
2023-04-18T23:38:04.585Z,4.75
2023-04-18T23:41:27.595Z,5.13
2023-04-18T23:43:54.218Z,4.80
2023-04-18T23:50:12.104Z,4.95
2023-04-18T23:56:29.752Z,5.10
2023-04-18T23:59:21.312Z,5.10
